AirNav   Air Wisconsin Up To $57,000 Bonus
 
 606 users online  

5CL1 Hart Ranch Airport
Santa Margarita, California, USA

GOING TO SANTA MARGARITA?


FAA INFORMATION EFFECTIVE 03 NOVEMBER 2022

Location

FAA Identifier: 5CL1
Lat/Long: 35-24-17.0000N 120-31-30.0000W
35-24.283333N 120-31.500000W
35.4047222,-120.5250000
(estimated)
Elevation: 1380 ft. / 421 m (estimated)
Variation: 15E (1990)
From city: 4 miles E of SANTA MARGARITA, CA
Time zone: UTC -8 (UTC -7 during Daylight Saving Time)
Zip code: 93453

Airport Operations

Airport use: Private use. Permission required prior to landing
Activation date: 07/1993
Control tower: no
ARTCC: OAKLAND CENTER
FSS: HAWTHORNE FLIGHT SERVICE STATION
Attendance: IREG
Wind indicator: yes
Segmented circle: no
Landing fee: yes

Airport Communications

WX ASOS at SBP (12 nm SW): 120.6 (805-547-1260)
WX ASOS at PRB (17 nm N): 120.125 (805-239-3593)
WX AWOS-3 at L52 (19 nm S): 118.375 (805-489-1305)

Nearby radio navigation aids

VOR radial/distance  VOR name  Freq  Var
MQOr035/14.7MORRO BAY VORTAC112.4016E
PRBr147/16.8PASO ROBLES VORTAC114.3016E
GLJr344/(27.1)GUADALUPE VOR113.0516E
AVEr225/30.4AVENAL VOR/DME117.1016E
FLWr284/37.3FELLOWS VOR/DME117.5016E

Airport Services

Runway Information

Runway 7/25

Dimensions: 1800 x 24 ft. / 549 x 7 m
Surface: gravel
RUNWAY 7  RUNWAY 25
Traffic pattern: leftleft

Airport Ownership and Management from official FAA records

Ownership: Privately-owned
Owner: STEVEN HART
5636 PARKHILL RD
SANTA MARGARITA, CA 93453
Phone 805-438-4041
Manager: STEVEN HART
5636 PARKHILL RD
SANTA MARGARITA, CA 93453
Phone 805-438-4041

Airport Operational Statistics

Aircraft based on the field: 1
Single engine airplanes: 1
    

Additional Remarks

FOR CD CTC OAKLAND ARTCC AT 510-745-3380.

Instrument Procedures

There are no published instrument procedures at 5CL1.

Some nearby airports with instrument procedures:

KSBP - San Luis County Regional Airport (12 nm SW)
KPRB - Paso Robles Municipal Airport (17 nm N)
KSMX - Santa Maria Public Airport/Capt G Allan Hancock Field (30 nm S)
KVBG - Vandenberg Space Force Base (40 nm S)
KLPC - Lompoc Airport (44 nm S)
 
Loc | Ops | Rwys | IFR | FBO | Links
Com | Nav | Svcs | Stats | Notes
Area around 5CL1 (Hart Ranch Airport)
 
Road maps at: MapQuest Bing Google
 
Aerial photo
No photo
 
Sectional chart

 
Airport distance calculator
Flying to Hart Ranch Airport? Find the distance to fly.

From to 5CL1

Sunrise and sunset
Times for 28-Nov-2022
 Local
(UTC-8)
 Zulu
(UTC)
Morning civil twilight06:2314:23
Sunrise06:5114:51
Sunset16:4900:49
Evening civil twilight17:1701:17

Current date and time
Zulu (UTC)  28-Nov-2022 12:24:59
Local (UTC-8)  28-Nov-2022 04:24:59
 
METAR
KSBP 
12nm SW 
281156Z AUTO 08003KT 10SM CLR 06/03 A2997 RMK AO2 SLP148 T00560028 10094 20050 58002
KPRB 
17nm N 
281153Z AUTO 00000KT 10SM CLR 04/M02 A2997 RMK AO2 SLP149 T00391017 10089 20028 56004 $
KL52 
19nm S 
281155Z AUTO 00000KT 6SM BR SCT010 05/05 A2997 RMK A01
TAF
KSBP 
12nm SW 
281155Z 2812/2912 VRB03KT P6SM BKN250 FM281700 32010KT P6SM BKN250 FM282000 32018G26KT P6SM SCT250 FM290300 31010KT P6SM BKN250
KPRB 
17nm N 
281155Z 2812/2912 VRB03KT P6SM BKN250 FM281800 32010KT P6SM BKN250 FM282200 31015G20KT P6SM SCT250 FM290600 31010KT P6SM SCT250
NOTAMs
Click for the latest NOTAMs
NOTAMs are issued by the DoD/FAA and will open in a separate window not controlled by AirNav.

 

 
 

Would you like to see your business listed on this page?

 If your business provides an interesting product or service to pilots, flight crews, aircraft, or users of the Hart Ranch Airport, you should consider listing it here.  To start the listing process, click on the button below
 
Add a business
 

Other Pages about Hart Ranch Airport

Update a link
 
Copyright © AirNav, LLC. All rights reserved. Privacy Policy  Contact